sensor_id;sensor_type;location;lat;lon;timestamp;P1;P4;P2;P0;N10;N4;N25;N1;N05;TS
85470;SPS30;75873;54.332;18.626;2024-01-30T00:00:32;55.1;;53.4;48.8;;;;;;
85470;SPS30;75873;54.332;18.626;2024-01-30T00:05:32;54.7;;52.7;47.9;;;;;;
85470;SPS30;75873;54.332;18.626;2024-01-30T00:10:32;54.3;;52.1;47.2;;;;;;
85470;SPS30;75873;54.332;18.626;2024-01-30T00:15:32;62.8;;61.0;56.1;;;;;;
85470;SPS30;75873;54.332;18.626;2024-01-30T00:20:32;57.3;;55.7;51.2;;;;;;
85470;SPS30;75873;54.332;18.626;2024-01-30T00:25:32;56.4;;53.2;47.2;;;;;;
85470;SPS30;75873;54.332;18.626;2024-01-30T00:30:32;53.2;;50.6;45.3;;;;;;
85470;SPS30;75873;54.332;18.626;2024-01-30T00:35:32;49.3;;47.5;43.1;;;;;;
85470;SPS30;75873;54.332;18.626;2024-01-30T00:40:32;45.9;;44.8;41.2;;;;;;
85470;SPS30;75873;54.332;18.626;2024-01-30T00:45:32;47.6;;46.4;42.8;;;;;;
85470;SPS30;75873;54.332;18.626;2024-01-30T00:50:32;49.7;;48.1;43.9;;;;;;
85470;SPS30;75873;54.332;18.626;2024-01-30T00:55:32;51.0;;48.8;44.0;;;;;;
85470;SPS30;75873;54.332;18.626;2024-01-30T01:00:32;52.3;;50.4;45.8;;;;;;
85470;SPS30;75873;54.332;18.626;2024-01-30T01:05:32;48.6;;46.8;42.5;;;;;;
85470;SPS30;75873;54.332;18.626;2024-01-30T01:10:32;48.7;;47.2;43.1;;;;;;
85470;SPS30;75873;54.332;18.626;2024-01-30T01:15:32;47.6;;46.0;41.9;;;;;;
85470;SPS30;75873;54.332;18.626;2024-01-30T01:20:32;48.6;;46.7;42.4;;;;;;
85470;SPS30;75873;54.332;18.626;2024-01-30T01:25:32;50.4;;48.3;43.6;;;;;;
85470;SPS30;75873;54.332;18.626;2024-01-30T01:30:32;51.6;;49.2;44.1;;;;;;
85470;SPS30;75873;54.332;18.626;2024-01-30T01:35:32;49.9;;48.8;45.1;;;;;;
85470;SPS30;75873;54.332;18.626;2024-01-30T01:40:32;49.4;;47.9;43.9;;;;;;
85470;SPS30;75873;54.332;18.626;2024-01-30T01:45:32;52.7;;51.3;47.2;;;;;;
85470;SPS30;75873;54.332;18.626;2024-01-30T01:50:32;52.2;;50.6;46.4;;;;;;
85470;SPS30;75873;54.332;18.626;2024-01-30T01:55:32;51.8;;50.1;45.7;;;;;;
85470;SPS30;75873;54.332;18.626;2024-01-30T02:00:32;50.3;;48.7;44.4;;;;;;
85470;SPS30;75873;54.332;18.626;2024-01-30T02:05:32;50.6;;49.4;45.6;;;;;;
85470;SPS30;75873;54.332;18.626;2024-01-30T02:10:32;52.4;;50.4;45.6;;;;;;
85470;SPS30;75873;54.332;18.626;2024-01-30T02:15:32;51.2;;49.5;45.2;;;;;;
85470;SPS30;75873;54.332;18.626;2024-01-30T02:20:32;49.0;;47.2;42.8;;;;;;
85470;SPS30;75873;54.332;18.626;2024-01-30T02:25:33;46.7;;45.6;42.0;;;;;;
85470;SPS30;75873;54.332;18.626;2024-01-30T02:30:32;47.0;;46.0;42.5;;;;;;
85470;SPS30;75873;54.332;18.626;2024-01-30T02:35:32;48.5;;46.8;42.6;;;;;;
85470;SPS30;75873;54.332;18.626;2024-01-30T02:40:32;46.7;;45.7;42.4;;;;;;
85470;SPS30;75873;54.332;18.626;2024-01-30T02:45:32;47.4;;46.0;42.1;;;;;;
85470;SPS30;75873;54.332;18.626;2024-01-30T02:50:32;46.2;;44.7;40.7;;;;;;
85470;SPS30;75873;54.332;18.626;2024-01-30T02:55:32;46.0;;44.7;41.0;;;;;;
85470;SPS30;75873;54.332;18.626;2024-01-30T03:00:32;48.9;;46.7;42.0;;;;;;
85470;SPS30;75873;54.332;18.626;2024-01-30T03:05:32;47.3;;45.2;40.7;;;;;;
85470;SPS30;75873;54.332;18.626;2024-01-30T03:10:32;45.1;;43.7;40.0;;;;;;
85470;SPS30;75873;54.332;18.626;2024-01-30T03:15:32;45.5;;44.0;40.2;;;;;;
85470;SPS30;75873;54.332;18.626;2024-01-30T03:20:32;44.9;;43.7;40.1;;;;;;
85470;SPS30;75873;54.332;18.626;2024-01-30T03:25:32;44.6;;43.3;39.7;;;;;;
85470;SPS30;75873;54.332;18.626;2024-01-30T03:30:33;44.1;;43.1;39.8;;;;;;
85470;SPS30;75873;54.332;18.626;2024-01-30T03:35:32;43.4;;42.3;38.8;;;;;;
85470;SPS30;75873;54.332;18.626;2024-01-30T03:40:32;43.9;;42.7;39.2;;;;;;
85470;SPS30;75873;54.332;18.626;2024-01-30T03:45:32;43.0;;42.0;38.8;;;;;;
85470;SPS30;75873;54.332;18.626;2024-01-30T03:50:33;44.2;;43.1;39.6;;;;;;
85470;SPS30;75873;54.332;18.626;2024-01-30T03:55:32;44.9;;43.4;39.5;;;;;;
85470;SPS30;75873;54.332;18.626;2024-01-30T04:00:32;42.4;;41.6;38.6;;;;;;
85470;SPS30;75873;54.332;18.626;2024-01-30T04:05:32;43.7;;42.4;38.9;;;;;;
85470;SPS30;75873;54.332;18.626;2024-01-30T04:10:32;45.7;;44.5;40.9;;;;;;
85470;SPS30;75873;54.332;18.626;2024-01-30T04:15:32;46.2;;45.2;41.7;;;;;;
85470;SPS30;75873;54.332;18.626;2024-01-30T04:20:32;45.1;;43.9;40.4;;;;;;
85470;SPS30;75873;54.332;18.626;2024-01-30T04:25:32;46.9;;45.1;40.9;;;;;;
85470;SPS30;75873;54.332;18.626;2024-01-30T04:30:32;45.1;;43.4;39.3;;;;;;
85470;SPS30;75873;54.332;18.626;2024-01-30T04:35:32;44.0;;43.1;39.9;;;;;;
85470;SPS30;75873;54.332;18.626;2024-01-30T04:40:32;47.3;;45.4;41.1;;;;;;
85470;SPS30;75873;54.332;18.626;2024-01-30T04:45:32;48.7;;47.2;43.1;;;;;;
85470;SPS30;75873;54.332;18.626;2024-01-30T04:50:32;48.6;;47.3;43.5;;;;;;
85470;SPS30;75873;54.332;18.626;2024-01-30T04:55:32;44.9;;43.8;40.3;;;;;;
85470;SPS30;75873;54.332;18.626;2024-01-30T05:00:32;44.2;;43.5;40.4;;;;;;
85470;SPS30;75873;54.332;18.626;2024-01-30T05:05:32;44.8;;43.9;40.7;;;;;;
85470;SPS30;75873;54.332;18.626;2024-01-30T05:10:32;44.6;;43.4;39.8;;;;;;
85470;SPS30;75873;54.332;18.626;2024-01-30T05:15:32;44.5;;43.3;39.8;;;;;;
85470;SPS30;75873;54.332;18.626;2024-01-30T05:20:32;45.5;;44.3;40.7;;;;;;
85470;SPS30;75873;54.332;18.626;2024-01-30T05:25:33;58.3;;56.0;50.7;;;;;;
85470;SPS30;75873;54.332;18.626;2024-01-30T05:30:32;57.0;;54.8;49.7;;;;;;
85470;SPS30;75873;54.332;18.626;2024-01-30T05:35:32;54.2;;52.0;46.9;;;;;;
85470;SPS30;75873;54.332;18.626;2024-01-30T05:40:32;51.4;;49.5;44.8;;;;;;
85470;SPS30;75873;54.332;18.626;2024-01-30T05:45:32;46.2;;45.6;42.6;;;;;;
85470;SPS30;75873;54.332;18.626;2024-01-30T05:50:32;48.0;;47.0;43.4;;;;;;
85470;SPS30;75873;54.332;18.626;2024-01-30T05:55:32;48.5;;47.2;43.3;;;;;;
85470;SPS30;75873;54.332;18.626;2024-01-30T06:00:32;45.7;;44.9;41.8;;;;;;
85470;SPS30;75873;54.332;18.626;2024-01-30T06:05:32;46.3;;45.1;41.6;;;;;;
85470;SPS30;75873;54.332;18.626;2024-01-30T06:10:32;48.5;;47.3;43.6;;;;;;
85470;SPS30;75873;54.332;18.626;2024-01-30T06:15:32;56.2;;54.4;49.7;;;;;;
85470;SPS30;75873;54.332;18.626;2024-01-30T06:20:32;53.8;;52.3;48.0;;;;;;
85470;SPS30;75873;54.332;18.626;2024-01-30T06:25:32;55.6;;53.1;47.9;;;;;;
85470;SPS30;75873;54.332;18.626;2024-01-30T06:30:32;50.9;;49.7;45.9;;;;;;
85470;SPS30;75873;54.332;18.626;2024-01-30T06:35:32;51.9;;50.5;46.4;;;;;;
85470;SPS30;75873;54.332;18.626;2024-01-30T06:40:32;54.2;;53.0;48.9;;;;;;
85470;SPS30;75873;54.332;18.626;2024-01-30T06:45:32;64.0;;60.6;54.0;;;;;;
85470;SPS30;75873;54.332;18.626;2024-01-30T06:50:32;59.2;;57.2;52.2;;;;;;
85470;SPS30;75873;54.332;18.626;2024-01-30T06:55:32;62.6;;59.8;53.8;;;;;;
85470;SPS30;75873;54.332;18.626;2024-01-30T07:00:32;56.5;;54.3;49.3;;;;;;
85470;SPS30;75873;54.332;18.626;2024-01-30T07:05:32;57.6;;55.1;49.7;;;;;;
85470;SPS30;75873;54.332;18.626;2024-01-30T07:10:32;57.5;;55.1;49.7;;;;;;
85470;SPS30;75873;54.332;18.626;2024-01-30T07:15:32;51.5;;50.1;46.0;;;;;;
85470;SPS30;75873;54.332;18.626;2024-01-30T07:20:32;48.7;;47.6;43.9;;;;;;
85470;SPS30;75873;54.332;18.626;2024-01-30T07:25:32;49.4;;48.2;44.4;;;;;;
85470;SPS30;75873;54.332;18.626;2024-01-30T07:30:32;48.8;;47.8;44.3;;;;;;
85470;SPS30;75873;54.332;18.626;2024-01-30T07:35:32;73.6;;71.1;64.9;;;;;;
85470;SPS30;75873;54.332;18.626;2024-01-30T07:40:32;60.9;;59.5;54.9;;;;;;
85470;SPS30;75873;54.332;18.626;2024-01-30T07:45:32;51.2;;50.4;46.8;;;;;;
85470;SPS30;75873;54.332;18.626;2024-01-30T07:50:32;49.7;;49.2;46.1;;;;;;
85470;SPS30;75873;54.332;18.626;2024-01-30T07:55:32;46.2;;45.5;42.3;;;;;;
85470;SPS30;75873;54.332;18.626;2024-01-30T08:00:33;47.9;;46.6;42.8;;;;;;
85470;SPS30;75873;54.332;18.626;2024-01-30T08:05:32;48.7;;47.6;43.9;;;;;;
85470;SPS30;75873;54.332;18.626;2024-01-30T08:10:32;49.8;;49.1;45.8;;;;;;
85470;SPS30;75873;54.332;18.626;2024-01-30T08:15:32;66.8;;65.7;61.1;;;;;;
85470;SPS30;75873;54.332;18.626;2024-01-30T08:20:32;67.8;;67.0;62.6;;;;;;
85470;SPS30;75873;54.332;18.626;2024-01-30T08:25:32;73.3;;72.2;67.2;;;;;;
85470;SPS30;75873;54.332;18.626;2024-01-30T08:30:32;77.5;;75.8;70.0;;;;;;
85470;SPS30;75873;54.332;18.626;2024-01-30T08:35:32;69.0;;67.3;62.0;;;;;;
85470;SPS30;75873;54.332;18.626;2024-01-30T08:40:32;82.4;;79.8;73.0;;;;;;
85470;SPS30;75873;54.332;18.626;2024-01-30T08:45:32;71.1;;69.3;63.7;;;;;;
85470;SPS30;75873;54.332;18.626;2024-01-30T08:50:32;86.4;;83.9;76.8;;;;;;
85470;SPS30;75873;54.332;18.626;2024-01-30T08:55:32;80.1;;78.9;73.4;;;;;;
85470;SPS30;75873;54.332;18.626;2024-01-30T09:00:32;70.9;;70.1;65.6;;;;;;
85470;SPS30;75873;54.332;18.626;2024-01-30T09:05:32;69.2;;68.8;64.6;;;;;;
85470;SPS30;75873;54.332;18.626;2024-01-30T09:10:32;64.9;;63.4;58.5;;;;;;
85470;SPS30;75873;54.332;18.626;2024-01-30T09:15:32;70.3;;68.5;63.1;;;;;;
85470;SPS30;75873;54.332;18.626;2024-01-30T09:20:32;64.4;;62.7;57.7;;;;;;
85470;SPS30;75873;54.332;18.626;2024-01-30T09:25:32;60.5;;59.4;55.1;;;;;;
85470;SPS30;75873;54.332;18.626;2024-01-30T09:30:32;59.4;;58.2;54.0;;;;;;
85470;SPS30;75873;54.332;18.626;2024-01-30T09:35:32;49.7;;49.0;45.6;;;;;;
85470;SPS30;75873;54.332;18.626;2024-01-30T09:40:32;46.9;;46.4;43.3;;;;;;
85470;SPS30;75873;54.332;18.626;2024-01-30T09:45:32;44.1;;43.5;40.6;;;;;;
85470;SPS30;75873;54.332;18.626;2024-01-30T09:50:32;46.5;;45.5;42.1;;;;;;
85470;SPS30;75873;54.332;18.626;2024-01-30T09:55:32;47.4;;46.2;42.5;;;;;;
85470;SPS30;75873;54.332;18.626;2024-01-30T10:00:32;47.2;;46.2;42.7;;;;;;
85470;SPS30;75873;54.332;18.626;2024-01-30T10:05:32;45.7;;45.1;42.1;;;;;;
85470;SPS30;75873;54.332;18.626;2024-01-30T10:10:32;48.4;;47.4;43.9;;;;;;
85470;SPS30;75873;54.332;18.626;2024-01-30T10:15:32;51.0;;49.7;45.8;;;;;;
85470;SPS30;75873;54.332;18.626;2024-01-30T10:20:32;46.1;;46.1;43.5;;;;;;
85470;SPS30;75873;54.332;18.626;2024-01-30T10:25:33;46.1;;45.7;42.8;;;;;;
85470;SPS30;75873;54.332;18.626;2024-01-30T10:30:32;50.4;;49.6;46.1;;;;;;
85470;SPS30;75873;54.332;18.626;2024-01-30T10:35:32;47.8;;47.0;43.6;;;;;;
85470;SPS30;75873;54.332;18.626;2024-01-30T10:40:32;42.6;;42.0;39.1;;;;;;
85470;SPS30;75873;54.332;18.626;2024-01-30T10:45:32;48.8;;48.3;45.2;;;;;;
85470;SPS30;75873;54.332;18.626;2024-01-30T10:50:32;43.0;;42.3;39.4;;;;;;
85470;SPS30;75873;54.332;18.626;2024-01-30T10:55:32;41.0;;40.4;37.6;;;;;;
85470;SPS30;75873;54.332;18.626;2024-01-30T11:00:32;42.0;;41.4;38.6;;;;;;
85470;SPS30;75873;54.332;18.626;2024-01-30T11:05:33;44.6;;44.1;41.1;;;;;;
85470;SPS30;75873;54.332;18.626;2024-01-30T11:10:32;38.5;;37.9;35.3;;;;;;
85470;SPS30;75873;54.332;18.626;2024-01-30T11:15:32;39.5;;38.8;36.0;;;;;;
85470;SPS30;75873;54.332;18.626;2024-01-30T11:20:32;39.0;;38.5;35.9;;;;;;
85470;SPS30;75873;54.332;18.626;2024-01-30T11:25:32;40.7;;40.3;37.6;;;;;;
85470;SPS30;75873;54.332;18.626;2024-01-30T11:30:32;38.4;;38.0;35.6;;;;;;
85470;SPS30;75873;54.332;18.626;2024-01-30T11:35:33;36.5;;36.1;33.7;;;;;;
85470;SPS30;75873;54.332;18.626;2024-01-30T11:40:33;37.5;;36.9;34.3;;;;;;
85470;SPS30;75873;54.332;18.626;2024-01-30T11:45:32;37.2;;36.8;34.4;;;;;;
85470;SPS30;75873;54.332;18.626;2024-01-30T11:50:33;36.9;;36.8;34.6;;;;;;
85470;SPS30;75873;54.332;18.626;2024-01-30T11:55:32;33.8;;33.4;31.2;;;;;;
85470;SPS30;75873;54.332;18.626;2024-01-30T12:00:32;33.6;;33.0;30.6;;;;;;
85470;SPS30;75873;54.332;18.626;2024-01-30T12:05:32;32.0;;31.8;29.8;;;;;;
85470;SPS30;75873;54.332;18.626;2024-01-30T12:10:32;32.8;;32.4;30.2;;;;;;
85470;SPS30;75873;54.332;18.626;2024-01-30T12:15:32;35.9;;35.4;33.0;;;;;;
85470;SPS30;75873;54.332;18.626;2024-01-30T12:20:32;36.5;;35.9;33.4;;;;;;
85470;SPS30;75873;54.332;18.626;2024-01-30T12:25:32;34.8;;34.2;31.8;;;;;;
85470;SPS30;75873;54.332;18.626;2024-01-30T12:30:32;34.4;;33.6;31.0;;;;;;
85470;SPS30;75873;54.332;18.626;2024-01-30T12:35:32;32.6;;32.5;30.5;;;;;;
85470;SPS30;75873;54.332;18.626;2024-01-30T12:40:33;31.0;;30.8;29.0;;;;;;
85470;SPS30;75873;54.332;18.626;2024-01-30T12:45:32;31.7;;31.3;29.2;;;;;;
85470;SPS30;75873;54.332;18.626;2024-01-30T12:50:32;28.7;;28.4;26.5;;;;;;
85470;SPS30;75873;54.332;18.626;2024-01-30T12:55:32;29.0;;28.7;26.8;;;;;;
85470;SPS30;75873;54.332;18.626;2024-01-30T13:00:32;27.8;;27.6;25.9;;;;;;
85470;SPS30;75873;54.332;18.626;2024-01-30T13:05:33;30.6;;30.4;28.5;;;;;;
85470;SPS30;75873;54.332;18.626;2024-01-30T13:10:33;30.1;;29.8;27.9;;;;;;
85470;SPS30;75873;54.332;18.626;2024-01-30T13:15:33;27.1;;27.1;25.6;;;;;;
85470;SPS30;75873;54.332;18.626;2024-01-30T13:20:33;28.3;;28.0;26.2;;;;;;
85470;SPS30;75873;54.332;18.626;2024-01-30T13:25:33;27.6;;27.5;26.0;;;;;;
85470;SPS30;75873;54.332;18.626;2024-01-30T13:30:32;29.3;;29.2;27.6;;;;;;
85470;SPS30;75873;54.332;18.626;2024-01-30T13:35:32;29.3;;29.1;27.3;;;;;;
85470;SPS30;75873;54.332;18.626;2024-01-30T13:40:32;31.3;;31.2;29.5;;;;;;
85470;SPS30;75873;54.332;18.626;2024-01-30T13:45:32;28.5;;28.4;26.8;;;;;;
85470;SPS30;75873;54.332;18.626;2024-01-30T13:50:32;28.5;;28.5;26.9;;;;;;
85470;SPS30;75873;54.332;18.626;2024-01-30T13:55:33;28.7;;28.6;27.0;;;;;;
85470;SPS30;75873;54.332;18.626;2024-01-30T14:00:32;29.6;;29.5;27.8;;;;;;
85470;SPS30;75873;54.332;18.626;2024-01-30T14:05:32;30.7;;30.5;28.7;;;;;;
85470;SPS30;75873;54.332;18.626;2024-01-30T14:10:32;38.7;;38.0;35.3;;;;;;
85470;SPS30;75873;54.332;18.626;2024-01-30T14:15:32;31.1;;30.7;28.7;;;;;;
85470;SPS30;75873;54.332;18.626;2024-01-30T14:20:32;30.4;;30.2;28.5;;;;;;
85470;SPS30;75873;54.332;18.626;2024-01-30T14:25:32;28.1;;28.0;26.4;;;;;;
85470;SPS30;75873;54.332;18.626;2024-01-30T14:30:32;30.9;;30.8;29.0;;;;;;
85470;SPS30;75873;54.332;18.626;2024-01-30T14:35:32;29.6;;29.4;27.7;;;;;;
85470;SPS30;75873;54.332;18.626;2024-01-30T14:40:32;28.5;;28.1;26.3;;;;;;
85470;SPS30;75873;54.332;18.626;2024-01-30T14:45:32;28.1;;27.8;26.0;;;;;;
85470;SPS30;75873;54.332;18.626;2024-01-30T14:50:32;29.8;;29.5;27.6;;;;;;
85470;SPS30;75873;54.332;18.626;2024-01-30T14:55:32;30.8;;30.6;28.7;;;;;;
85470;SPS30;75873;54.332;18.626;2024-01-30T15:00:33;35.4;;35.0;32.7;;;;;;
85470;SPS30;75873;54.332;18.626;2024-01-30T15:05:32;31.6;;31.3;29.2;;;;;;
85470;SPS30;75873;54.332;18.626;2024-01-30T15:10:32;32.1;;31.6;29.5;;;;;;
85470;SPS30;75873;54.332;18.626;2024-01-30T15:15:32;46.4;;45.0;41.2;;;;;;
85470;SPS30;75873;54.332;18.626;2024-01-30T15:20:32;51.2;;50.0;46.0;;;;;;
85470;SPS30;75873;54.332;18.626;2024-01-30T15:25:32;43.7;;42.7;39.4;;;;;;
85470;SPS30;75873;54.332;18.626;2024-01-30T15:30:32;41.1;;40.4;37.6;;;;;;
85470;SPS30;75873;54.332;18.626;2024-01-30T15:35:32;36.1;;35.9;33.7;;;;;;
85470;SPS30;75873;54.332;18.626;2024-01-30T15:40:32;33.8;;33.2;30.9;;;;;;
85470;SPS30;75873;54.332;18.626;2024-01-30T15:45:32;34.1;;33.8;31.6;;;;;;
85470;SPS30;75873;54.332;18.626;2024-01-30T15:50:32;39.2;;39.1;36.9;;;;;;
85470;SPS30;75873;54.332;18.626;2024-01-30T15:55:32;46.2;;45.9;43.0;;;;;;
85470;SPS30;75873;54.332;18.626;2024-01-30T16:00:32;44.9;;44.4;41.4;;;;;;
85470;SPS30;75873;54.332;18.626;2024-01-30T16:05:32;43.6;;43.2;40.6;;;;;;
85470;SPS30;75873;54.332;18.626;2024-01-30T16:10:32;89.1;;88.3;82.7;;;;;;
85470;SPS30;75873;54.332;18.626;2024-01-30T16:15:32;44.5;;44.1;41.2;;;;;;
85470;SPS30;75873;54.332;18.626;2024-01-30T16:20:32;41.6;;41.4;38.9;;;;;;
85470;SPS30;75873;54.332;18.626;2024-01-30T16:25:32;46.9;;46.8;44.3;;;;;;
85470;SPS30;75873;54.332;18.626;2024-01-30T16:35:32;35.5;;35.2;33.0;;;;;;
85470;SPS30;75873;54.332;18.626;2024-01-30T16:40:32;33.8;;33.7;31.7;;;;;;
85470;SPS30;75873;54.332;18.626;2024-01-30T16:45:32;38.0;;37.9;35.8;;;;;;
85470;SPS30;75873;54.332;18.626;2024-01-30T16:50:34;41.5;;41.2;38.6;;;;;;
85470;SPS30;75873;54.332;18.626;2024-01-30T16:55:32;40.9;;40.6;38.2;;;;;;
85470;SPS30;75873;54.332;18.626;2024-01-30T17:00:32;37.4;;37.2;35.0;;;;;;
85470;SPS30;75873;54.332;18.626;2024-01-30T17:05:33;35.2;;35.0;33.0;;;;;;
85470;SPS30;75873;54.332;18.626;2024-01-30T17:10:32;35.5;;35.1;32.8;;;;;;
85470;SPS30;75873;54.332;18.626;2024-01-30T17:15:32;41.7;;40.9;37.9;;;;;;
85470;SPS30;75873;54.332;18.626;2024-01-30T17:20:33;35.7;;35.5;33.4;;;;;;
85470;SPS30;75873;54.332;18.626;2024-01-30T17:25:32;33.7;;33.6;31.7;;;;;;
85470;SPS30;75873;54.332;18.626;2024-01-30T17:30:32;34.1;;34.0;32.1;;;;;;
85470;SPS30;75873;54.332;18.626;2024-01-30T17:35:34;34.7;;34.6;32.7;;;;;;
85470;SPS30;75873;54.332;18.626;2024-01-30T17:40:32;35.5;;35.4;33.3;;;;;;
85470;SPS30;75873;54.332;18.626;2024-01-30T17:45:32;34.8;;34.5;32.3;;;;;;
85470;SPS30;75873;54.332;18.626;2024-01-30T17:50:32;34.4;;34.2;32.1;;;;;;
85470;SPS30;75873;54.332;18.626;2024-01-30T17:55:33;34.9;;34.8;32.8;;;;;;
85470;SPS30;75873;54.332;18.626;2024-01-30T18:00:32;42.3;;41.0;37.6;;;;;;
85470;SPS30;75873;54.332;18.626;2024-01-30T18:05:32;40.4;;39.8;37.1;;;;;;
85470;SPS30;75873;54.332;18.626;2024-01-30T18:10:32;40.9;;40.2;37.4;;;;;;
85470;SPS30;75873;54.332;18.626;2024-01-30T18:15:32;37.4;;36.9;34.4;;;;;;
85470;SPS30;75873;54.332;18.626;2024-01-30T18:20:32;36.5;;36.2;33.9;;;;;;
85470;SPS30;75873;54.332;18.626;2024-01-30T18:25:32;37.9;;37.7;35.4;;;;;;
85470;SPS30;75873;54.332;18.626;2024-01-30T18:30:32;34.4;;34.1;32.0;;;;;;
85470;SPS30;75873;54.332;18.626;2024-01-30T18:35:32;36.0;;35.7;33.5;;;;;;
85470;SPS30;75873;54.332;18.626;2024-01-30T18:40:32;34.8;;34.5;32.5;;;;;;
85470;SPS30;75873;54.332;18.626;2024-01-30T18:45:33;34.0;;33.7;31.6;;;;;;
85470;SPS30;75873;54.332;18.626;2024-01-30T18:50:33;36.7;;36.4;34.0;;;;;;
85470;SPS30;75873;54.332;18.626;2024-01-30T18:55:32;33.9;;33.6;31.5;;;;;;
85470;SPS30;75873;54.332;18.626;2024-01-30T19:00:32;34.1;;33.8;31.7;;;;;;
85470;SPS30;75873;54.332;18.626;2024-01-30T19:05:32;34.2;;34.0;32.1;;;;;;
85470;SPS30;75873;54.332;18.626;2024-01-30T19:10:32;33.7;;33.4;31.3;;;;;;
85470;SPS30;75873;54.332;18.626;2024-01-30T19:15:32;34.1;;33.9;31.9;;;;;;
85470;SPS30;75873;54.332;18.626;2024-01-30T19:20:32;33.8;;33.4;31.3;;;;;;
85470;SPS30;75873;54.332;18.626;2024-01-30T19:25:32;35.0;;34.7;32.5;;;;;;
85470;SPS30;75873;54.332;18.626;2024-01-30T19:30:32;37.4;;37.3;35.2;;;;;;
85470;SPS30;75873;54.332;18.626;2024-01-30T19:35:32;42.0;;41.7;39.2;;;;;;
85470;SPS30;75873;54.332;18.626;2024-01-30T19:40:32;44.1;;43.7;40.8;;;;;;
85470;SPS30;75873;54.332;18.626;2024-01-30T19:45:32;43.5;;43.4;40.9;;;;;;
85470;SPS30;75873;54.332;18.626;2024-01-30T19:50:32;43.0;;42.6;40.0;;;;;;
85470;SPS30;75873;54.332;18.626;2024-01-30T19:55:32;43.6;;43.3;40.7;;;;;;
85470;SPS30;75873;54.332;18.626;2024-01-30T20:00:32;41.7;;41.4;38.8;;;;;;
85470;SPS30;75873;54.332;18.626;2024-01-30T20:05:32;43.3;;42.5;39.5;;;;;;
85470;SPS30;75873;54.332;18.626;2024-01-30T20:10:32;42.1;;41.5;38.6;;;;;;
85470;SPS30;75873;54.332;18.626;2024-01-30T20:15:32;42.6;;42.3;39.7;;;;;;
85470;SPS30;75873;54.332;18.626;2024-01-30T20:20:32;45.4;;44.4;40.9;;;;;;
85470;SPS30;75873;54.332;18.626;2024-01-30T20:25:32;43.3;;43.0;40.4;;;;;;
85470;SPS30;75873;54.332;18.626;2024-01-30T20:30:32;43.8;;42.9;39.7;;;;;;
85470;SPS30;75873;54.332;18.626;2024-01-30T20:35:32;41.7;;41.2;38.5;;;;;;
85470;SPS30;75873;54.332;18.626;2024-01-30T20:40:32;42.0;;41.3;38.4;;;;;;
85470;SPS30;75873;54.332;18.626;2024-01-30T20:45:32;45.6;;45.0;42.0;;;;;;
85470;SPS30;75873;54.332;18.626;2024-01-30T20:50:32;36.8;;36.5;34.2;;;;;;
85470;SPS30;75873;54.332;18.626;2024-01-30T20:55:32;38.2;;37.6;35.0;;;;;;
85470;SPS30;75873;54.332;18.626;2024-01-30T21:00:32;41.0;;40.1;37.0;;;;;;
85470;SPS30;75873;54.332;18.626;2024-01-30T21:05:32;39.7;;39.0;36.3;;;;;;
85470;SPS30;75873;54.332;18.626;2024-01-30T21:10:32;46.3;;45.5;42.3;;;;;;
85470;SPS30;75873;54.332;18.626;2024-01-30T21:15:32;47.7;;46.7;43.1;;;;;;
85470;SPS30;75873;54.332;18.626;2024-01-30T21:20:32;46.3;;46.0;43.2;;;;;;
85470;SPS30;75873;54.332;18.626;2024-01-30T21:25:32;49.0;;48.3;45.1;;;;;;
85470;SPS30;75873;54.332;18.626;2024-01-30T21:30:32;48.2;;47.4;44.2;;;;;;
85470;SPS30;75873;54.332;18.626;2024-01-30T21:35:32;45.4;;44.7;41.6;;;;;;
85470;SPS30;75873;54.332;18.626;2024-01-30T21:40:32;41.5;;41.1;38.6;;;;;;
85470;SPS30;75873;54.332;18.626;2024-01-30T21:45:32;38.5;;38.3;35.9;;;;;;
85470;SPS30;75873;54.332;18.626;2024-01-30T21:50:32;37.9;;37.6;35.4;;;;;;
85470;SPS30;75873;54.332;18.626;2024-01-30T21:55:32;35.3;;35.1;33.0;;;;;;
85470;SPS30;75873;54.332;18.626;2024-01-30T22:00:35;34.9;;34.6;32.5;;;;;;
85470;SPS30;75873;54.332;18.626;2024-01-30T22:05:32;39.9;;39.2;36.5;;;;;;
85470;SPS30;75873;54.332;18.626;2024-01-30T22:15:32;36.4;;36.0;33.8;;;;;;
85470;SPS30;75873;54.332;18.626;2024-01-30T22:20:52;27.2;;27.2;25.7;;;;;;
85470;SPS30;75873;54.332;18.626;2024-01-30T22:25:32;33.9;;33.6;31.6;;;;;;
85470;SPS30;75873;54.332;18.626;2024-01-30T22:30:33;30.5;;30.3;28.4;;;;;;
85470;SPS30;75873;54.332;18.626;2024-01-30T22:35:32;28.6;;28.6;27.0;;;;;;
85470;SPS30;75873;54.332;18.626;2024-01-30T22:40:32;29.8;;29.5;27.6;;;;;;
85470;SPS30;75873;54.332;18.626;2024-01-30T22:45:32;29.4;;29.1;27.3;;;;;;
85470;SPS30;75873;54.332;18.626;2024-01-30T22:50:32;28.6;;28.6;27.0;;;;;;
85470;SPS30;75873;54.332;18.626;2024-01-30T23:00:32;28.5;;28.3;26.6;;;;;;
85470;SPS30;75873;54.332;18.626;2024-01-30T23:05:32;29.2;;29.0;27.2;;;;;;
85470;SPS30;75873;54.332;18.626;2024-01-30T23:10:32;29.0;;28.6;26.7;;;;;;
85470;SPS30;75873;54.332;18.626;2024-01-30T23:15:32;29.8;;29.5;27.7;;;;;;
85470;SPS30;75873;54.332;18.626;2024-01-30T23:20:32;29.0;;28.8;27.1;;;;;;
85470;SPS30;75873;54.332;18.626;2024-01-30T23:25:32;30.6;;30.2;28.2;;;;;;
85470;SPS30;75873;54.332;18.626;2024-01-30T23:30:32;29.9;;29.8;28.1;;;;;;
85470;SPS30;75873;54.332;18.626;2024-01-30T23:35:32;29.9;;29.7;27.9;;;;;;
85470;SPS30;75873;54.332;18.626;2024-01-30T23:40:32;30.9;;30.8;29.1;;;;;;
85470;SPS30;75873;54.332;18.626;2024-01-30T23:45:33;29.2;;28.7;26.5;;;;;;
85470;SPS30;75873;54.332;18.626;2024-01-30T23:50:32;30.3;;30.2;28.4;;;;;;
85470;SPS30;75873;54.332;18.626;2024-01-30T23:55:32;30.0;;29.8;28.1;;;;;;
